createdAt,value
2017-09-20T00:00:56.450Z,11.43
2017-09-20T00:06:12.322Z,11.44
2017-09-20T00:08:44.172Z,11.43
2017-09-20T00:11:15.174Z,11.44
2017-09-20T00:13:52.059Z,11.44
2017-09-20T00:16:22.795Z,11.45
2017-09-20T00:18:53.793Z,11.46
2017-09-20T00:21:25.205Z,11.47
2017-09-20T00:23:57.189Z,11.48
2017-09-20T00:26:27.673Z,11.49
2017-09-20T00:28:59.015Z,11.50
2017-09-20T00:31:29.954Z,11.50
2017-09-20T00:34:01.107Z,11.49
2017-09-20T00:36:31.744Z,11.49
2017-09-20T00:39:04.088Z,11.46
2017-09-20T00:41:35.041Z,11.43
2017-09-20T00:44:06.018Z,11.42
2017-09-20T00:46:36.578Z,11.40
2017-09-20T00:49:04.282Z,11.38
2017-09-20T00:51:32.010Z,11.36
2017-09-20T00:53:59.663Z,11.34
2017-09-20T00:56:27.361Z,11.34
2017-09-20T00:58:55.039Z,11.32
2017-09-20T01:01:22.754Z,11.32
2017-09-20T01:03:50.513Z,11.31
2017-09-20T01:06:18.220Z,11.27
2017-09-20T01:08:45.947Z,11.26
2017-09-20T01:11:13.654Z,11.28
2017-09-20T01:13:41.347Z,11.30
2017-09-20T01:16:09.056Z,11.29
2017-09-20T01:18:36.837Z,11.29
2017-09-20T01:21:04.550Z,11.28
2017-09-20T01:23:32.218Z,11.27
2017-09-20T01:25:59.934Z,11.26
2017-09-20T01:28:27.703Z,11.24
2017-09-20T01:30:55.426Z,11.22
2017-09-20T01:33:23.191Z,11.20
2017-09-20T01:35:50.908Z,11.17
2017-09-20T01:38:18.727Z,11.17
2017-09-20T01:40:46.459Z,11.14
2017-09-20T01:43:14.214Z,11.12
2017-09-20T01:45:41.900Z,11.12
2017-09-20T01:48:09.557Z,11.10
2017-09-20T01:50:37.239Z,11.06
2017-09-20T01:53:04.881Z,11.02
2017-09-20T01:55:32.588Z,10.97
2017-09-20T01:58:00.313Z,10.92
2017-09-20T02:00:28.054Z,10.89
2017-09-20T02:02:55.705Z,10.84
2017-09-20T02:05:23.450Z,10.80
2017-09-20T02:07:51.051Z,10.76
2017-09-20T02:10:18.819Z,10.73
2017-09-20T02:12:46.551Z,10.71
2017-09-20T02:15:14.302Z,10.70
2017-09-20T02:17:42.005Z,10.69
2017-09-20T02:20:09.745Z,10.70
2017-09-20T02:22:37.445Z,10.70
2017-09-20T02:25:05.225Z,10.70
2017-09-20T02:27:32.841Z,10.74
2017-09-20T02:30:00.597Z,10.78
2017-09-20T02:32:28.330Z,10.78
2017-09-20T02:34:55.987Z,10.77
2017-09-20T02:37:23.709Z,10.74
2017-09-20T02:39:51.495Z,10.71
2017-09-20T02:42:19.191Z,10.66
2017-09-20T02:44:46.985Z,10.63
2017-09-20T02:47:14.625Z,10.61
2017-09-20T02:49:42.328Z,10.57
2017-09-20T02:52:10.077Z,10.53
2017-09-20T02:54:37.832Z,10.50
2017-09-20T02:57:05.530Z,10.49
2017-09-20T02:59:33.282Z,10.50
2017-09-20T03:02:01.021Z,10.49
2017-09-20T03:04:28.825Z,10.48
2017-09-20T03:06:56.564Z,10.45
2017-09-20T03:09:24.322Z,10.42
2017-09-20T03:11:51.974Z,10.40
2017-09-20T03:14:19.747Z,10.38
2017-09-20T03:16:47.454Z,10.36
2017-09-20T03:19:15.150Z,10.33
2017-09-20T03:21:42.847Z,10.29
2017-09-20T03:24:10.621Z,10.23
2017-09-20T03:26:38.225Z,10.16
2017-09-20T03:29:05.998Z,10.12
2017-09-20T03:31:33.719Z,10.14
2017-09-20T03:34:01.365Z,10.20
2017-09-20T03:36:28.982Z,10.18
2017-09-20T03:38:56.728Z,10.13
2017-09-20T03:41:24.496Z,10.10
2017-09-20T03:43:52.207Z,10.11
2017-09-20T03:46:20.088Z,10.19
2017-09-20T03:48:47.801Z,10.25
2017-09-20T03:51:15.554Z,10.30
2017-09-20T03:53:43.277Z,10.34
2017-09-20T03:56:11.035Z,10.37
2017-09-20T03:58:38.753Z,10.41
2017-09-20T04:01:09.548Z,10.47
2017-09-20T04:03:37.271Z,10.52
2017-09-20T04:06:05.064Z,10.56
2017-09-20T04:08:32.677Z,10.61
2017-09-20T04:11:00.436Z,10.62
2017-09-20T04:13:28.054Z,10.66
2017-09-20T04:15:55.825Z,10.68
2017-09-20T04:18:23.528Z,10.70
2017-09-20T04:20:51.310Z,10.72
2017-09-20T04:23:18.923Z,10.74
2017-09-20T04:25:46.694Z,10.76
2017-09-20T04:28:14.307Z,10.78
2017-09-20T04:30:42.082Z,10.79
2017-09-20T04:33:09.718Z,10.81
2017-09-20T04:35:37.465Z,10.83
2017-09-20T04:38:05.230Z,10.83
2017-09-20T04:40:32.991Z,10.84
2017-09-20T04:43:00.645Z,10.84
2017-09-20T04:45:28.409Z,10.85
2017-09-20T04:47:56.014Z,10.85
2017-09-20T04:50:23.672Z,10.86
2017-09-20T04:52:51.268Z,10.88
2017-09-20T04:55:18.905Z,10.90
2017-09-20T04:57:46.493Z,10.91
2017-09-20T05:00:14.202Z,10.94
2017-09-20T05:02:41.825Z,10.95
2017-09-20T05:05:09.489Z,10.96
2017-09-20T05:07:37.117Z,10.98
2017-09-20T05:10:05.346Z,10.98
2017-09-20T05:12:32.951Z,11.01
2017-09-20T05:15:00.654Z,11.03
2017-09-20T05:17:28.250Z,11.08
2017-09-20T05:19:55.933Z,11.11
2017-09-20T05:22:23.536Z,11.17
2017-09-20T05:24:51.161Z,11.21
2017-09-20T05:27:19.100Z,11.27
2017-09-20T05:29:46.725Z,11.34
2017-09-20T05:32:14.414Z,11.40
2017-09-20T05:34:42.039Z,11.46
2017-09-20T05:37:09.708Z,11.55
2017-09-20T05:39:37.307Z,11.63
2017-09-20T05:42:04.959Z,11.70
2017-09-20T05:44:32.590Z,11.75
2017-09-20T05:47:00.239Z,11.76
2017-09-20T05:49:27.833Z,11.78
2017-09-20T05:51:55.486Z,11.79
2017-09-20T05:54:23.113Z,11.82
2017-09-20T05:56:50.768Z,11.83
2017-09-20T05:59:18.400Z,11.84
2017-09-20T06:01:46.089Z,11.87
2017-09-20T06:04:13.717Z,11.90
2017-09-20T06:06:41.383Z,11.94
2017-09-20T06:09:08.996Z,12.01
2017-09-20T06:11:36.656Z,12.10
2017-09-20T06:14:04.277Z,12.18
2017-09-20T06:16:31.917Z,12.27
2017-09-20T06:18:59.533Z,12.36
2017-09-20T06:21:27.232Z,12.47
2017-09-20T06:23:54.869Z,12.54
2017-09-20T06:26:22.548Z,12.60
2017-09-20T06:28:50.196Z,12.62
2017-09-20T06:31:17.837Z,12.68
2017-09-20T06:33:45.458Z,12.72
2017-09-20T06:36:13.124Z,12.82
2017-09-20T06:38:40.749Z,12.95
2017-09-20T06:41:08.396Z,13.07
2017-09-20T06:43:36.043Z,13.26
2017-09-20T06:46:03.724Z,13.43
2017-09-20T06:48:31.341Z,13.47
2017-09-20T06:50:59.057Z,13.50
2017-09-20T06:53:26.709Z,13.49
2017-09-20T06:55:54.481Z,13.52
2017-09-20T06:58:22.207Z,13.53
2017-09-20T07:00:49.898Z,13.53
2017-09-20T07:03:17.672Z,13.47
2017-09-20T07:05:45.398Z,13.50
2017-09-20T07:08:13.185Z,13.50
2017-09-20T07:10:40.849Z,13.58
2017-09-20T07:13:08.972Z,13.65
2017-09-20T07:15:36.686Z,13.76
2017-09-20T07:18:04.386Z,13.80
2017-09-20T07:20:32.030Z,13.90
2017-09-20T07:22:59.739Z,14.02
2017-09-20T07:25:27.462Z,14.05
2017-09-20T07:27:55.242Z,14.05
2017-09-20T07:30:23.001Z,14.10
2017-09-20T07:32:50.787Z,14.14
2017-09-20T07:35:18.537Z,14.11
2017-09-20T07:37:46.353Z,14.08
2017-09-20T07:40:14.081Z,14.03
2017-09-20T07:42:41.845Z,13.92
2017-09-20T07:45:09.587Z,13.84
2017-09-20T07:47:37.283Z,13.69
2017-09-20T07:50:04.932Z,13.61
2017-09-20T07:52:32.611Z,13.61
2017-09-20T07:55:00.281Z,13.68
2017-09-20T07:57:27.982Z,13.69
2017-09-20T07:59:55.614Z,13.70
2017-09-20T08:02:23.397Z,13.76
2017-09-20T08:04:51.130Z,13.87
2017-09-20T08:07:18.924Z,13.98
2017-09-20T08:09:46.688Z,14.19
2017-09-20T08:12:14.462Z,14.27
2017-09-20T08:14:42.199Z,14.45
2017-09-20T08:17:09.933Z,14.65
2017-09-20T08:19:37.660Z,14.92
2017-09-20T08:22:05.464Z,15.09
2017-09-20T08:24:33.236Z,15.14
2017-09-20T08:27:01.006Z,15.12
2017-09-20T08:29:28.720Z,14.85
2017-09-20T08:31:56.495Z,14.50
2017-09-20T08:34:24.235Z,14.44
2017-09-20T08:48:08.580Z,14.85
2017-09-20T08:53:15.100Z,14.70
2017-09-20T09:24:45.340Z,14.90
2017-09-20T09:40:42.735Z,14.26
2017-09-20T09:43:10.870Z,14.35
2017-09-20T09:45:38.499Z,14.54
2017-09-20T09:48:06.171Z,14.77
2017-09-20T09:50:33.802Z,14.99
2017-09-20T09:53:01.482Z,15.20
2017-09-20T09:55:29.194Z,15.43
2017-09-20T09:57:56.945Z,15.62
2017-09-20T10:00:24.652Z,15.73
2017-09-20T10:02:52.422Z,15.71
2017-09-20T10:05:20.136Z,15.70
2017-09-20T10:07:47.909Z,15.49
2017-09-20T10:10:15.656Z,15.49
2017-09-20T10:12:43.357Z,15.52
2017-09-20T10:15:11.100Z,15.57
2017-09-20T10:17:38.806Z,15.72
2017-09-20T10:20:06.556Z,15.66
2017-09-20T10:22:34.198Z,15.65
2017-09-20T10:25:01.960Z,15.79
2017-09-20T10:27:29.692Z,16.03
2017-09-20T10:29:57.909Z,16.00
2017-09-20T10:32:25.622Z,15.96
2017-09-20T10:34:53.379Z,16.03
2017-09-20T10:37:21.081Z,16.09
2017-09-20T10:39:48.901Z,16.19
2017-09-20T10:42:16.607Z,16.21
2017-09-20T10:44:44.417Z,16.30
2017-09-20T10:47:12.164Z,16.15
2017-09-20T10:49:39.952Z,16.21
2017-09-20T10:52:07.660Z,16.10
2017-09-20T10:54:35.441Z,16.11
2017-09-20T10:57:03.154Z,16.04
2017-09-20T10:59:30.819Z,16.10
2017-09-20T11:01:58.561Z,16.02
2017-09-20T11:04:26.343Z,16.09
2017-09-20T11:06:54.029Z,16.18
2017-09-20T11:09:21.808Z,16.23
2017-09-20T11:11:49.573Z,16.14
2017-09-20T11:14:17.250Z,16.18
2017-09-20T11:16:44.976Z,16.29
2017-09-20T11:19:12.748Z,16.31
2017-09-20T11:21:40.461Z,16.20
2017-09-20T11:24:08.242Z,16.04
2017-09-20T11:26:35.981Z,15.87
2017-09-20T11:29:03.728Z,15.91
2017-09-20T11:31:31.443Z,15.98
2017-09-20T11:33:59.210Z,16.04
2017-09-20T11:36:26.835Z,16.16
2017-09-20T11:38:54.675Z,16.08
2017-09-20T11:41:22.379Z,16.18
2017-09-20T11:43:50.150Z,16.26
2017-09-20T11:46:17.867Z,16.36
2017-09-20T11:48:45.661Z,16.45
2017-09-20T11:51:13.461Z,16.46
2017-09-20T11:53:41.238Z,16.44
2017-09-20T11:56:08.964Z,16.43
2017-09-20T11:58:36.694Z,16.38
2017-09-20T12:01:04.474Z,16.21
2017-09-20T12:03:32.179Z,16.24
2017-09-20T12:05:59.978Z,16.36
2017-09-20T12:08:27.716Z,16.46
2017-09-20T12:10:55.474Z,16.54
2017-09-20T12:13:23.221Z,16.52
2017-09-20T12:15:51.015Z,16.52
2017-09-20T12:18:18.740Z,16.59
2017-09-20T12:20:46.502Z,16.73
2017-09-20T12:23:14.216Z,16.59
2017-09-20T12:25:41.995Z,16.65
2017-09-20T12:28:09.699Z,16.67
2017-09-20T12:30:37.491Z,16.61
2017-09-20T12:33:05.213Z,16.59
2017-09-20T12:35:32.970Z,16.63
2017-09-20T12:38:00.709Z,16.69
2017-09-20T12:40:28.417Z,16.82
2017-09-20T12:42:56.086Z,16.91
2017-09-20T12:45:23.798Z,17.06
2017-09-20T12:47:51.460Z,17.12
2017-09-20T12:50:19.180Z,17.09
2017-09-20T12:52:46.863Z,17.23
2017-09-20T12:55:14.595Z,17.23
2017-09-20T12:57:42.259Z,17.00
2017-09-20T13:00:09.952Z,16.81
2017-09-20T13:02:37.663Z,16.69
2017-09-20T13:05:05.412Z,16.59
2017-09-20T13:07:33.056Z,16.56
2017-09-20T13:10:00.792Z,16.52
2017-09-20T13:12:28.494Z,16.35
2017-09-20T13:14:56.221Z,16.11
2017-09-20T13:17:23.897Z,15.96
2017-09-20T13:19:51.637Z,15.84
2017-09-20T13:22:19.328Z,15.68
2017-09-20T13:24:47.067Z,15.44
2017-09-20T13:27:14.742Z,15.46
2017-09-20T13:29:42.470Z,15.45
2017-09-20T13:32:10.142Z,15.52
2017-09-20T13:34:37.861Z,15.50
2017-09-20T13:37:05.565Z,15.47
2017-09-20T13:39:33.289Z,15.51
2017-09-20T13:42:01.014Z,15.60
2017-09-20T13:44:28.685Z,15.68
2017-09-20T13:46:56.417Z,15.79
2017-09-20T13:49:24.087Z,15.88
2017-09-20T13:51:51.822Z,15.95
2017-09-20T13:54:19.504Z,16.11
2017-09-20T13:56:47.233Z,16.27
2017-09-20T13:59:15.803Z,16.47
2017-09-20T14:01:44.707Z,16.58
2017-09-20T14:04:13.521Z,16.61
2017-09-20T14:06:42.333Z,16.68
2017-09-20T14:09:10.325Z,16.70
2017-09-20T14:11:38.148Z,16.60
2017-09-20T14:14:10.375Z,16.59
2017-09-20T14:16:39.648Z,16.46
2017-09-20T14:19:08.158Z,16.35
2017-09-20T14:21:36.692Z,16.25
2017-09-20T14:24:05.285Z,16.19
2017-09-20T14:38:17.268Z,16.21
2017-09-20T14:40:45.808Z,16.26
2017-09-20T14:49:25.089Z,16.24
2017-09-20T14:54:46.914Z,16.18
2017-09-20T14:57:15.433Z,16.05
2017-09-20T14:59:43.585Z,15.88
2017-09-20T15:02:12.180Z,15.71
2017-09-20T15:04:40.856Z,15.59
2017-09-20T15:07:15.839Z,15.46
2017-09-20T15:09:44.213Z,15.40
2017-09-20T15:12:13.898Z,15.39
2017-09-20T15:14:42.804Z,15.36
2017-09-20T15:17:11.262Z,15.31
2017-09-20T15:19:39.346Z,15.30
2017-09-20T15:22:07.495Z,15.31
2017-09-20T15:24:37.722Z,15.32
2017-09-20T15:27:05.741Z,15.34
2017-09-20T15:29:34.737Z,15.43
2017-09-20T15:32:02.495Z,15.52
2017-09-20T15:34:31.552Z,15.65
2017-09-20T15:36:59.599Z,15.86
2017-09-20T15:39:27.918Z,16.01
2017-09-20T15:41:57.435Z,16.18
2017-09-20T15:44:25.123Z,16.39
2017-09-20T15:46:53.157Z,16.54
2017-09-20T15:49:20.750Z,16.60
2017-09-20T15:51:50.143Z,16.46
2017-09-20T15:54:17.801Z,16.12
2017-09-20T15:56:45.539Z,15.84
2017-09-20T15:59:15.064Z,15.63
2017-09-20T16:01:42.774Z,15.43
2017-09-20T16:04:10.873Z,15.24
2017-09-20T16:06:38.905Z,15.14
2017-09-20T16:09:12.298Z,15.04
2017-09-20T16:11:42.190Z,14.94
2017-09-20T16:14:10.332Z,14.88
2017-09-20T16:16:38.545Z,14.85
2017-09-20T16:19:06.240Z,14.83
2017-09-20T16:21:33.983Z,14.81
2017-09-20T16:24:04.637Z,14.80
2017-09-20T16:26:33.330Z,14.79
2017-09-20T16:29:02.010Z,14.76
2017-09-20T16:31:30.974Z,14.75
2017-09-20T16:33:58.785Z,14.73
2017-09-20T16:36:27.588Z,14.68
2017-09-20T16:39:02.178Z,14.66
2017-09-20T16:41:31.274Z,14.65
2017-09-20T16:43:59.966Z,14.63
2017-09-20T16:49:15.320Z,14.56
2017-09-20T16:51:44.551Z,14.52
2017-09-20T16:54:13.733Z,14.49
2017-09-20T16:56:41.836Z,14.48
2017-09-20T16:59:09.743Z,14.50
2017-09-20T17:01:40.702Z,14.49
2017-09-20T17:04:10.020Z,14.48
2017-09-20T17:06:37.905Z,14.46
2017-09-20T17:09:07.169Z,14.45
2017-09-20T17:11:36.663Z,14.43
2017-09-20T17:14:05.696Z,14.37
2017-09-20T17:16:35.683Z,14.33
2017-09-20T17:19:03.527Z,14.28
2017-09-20T17:21:31.151Z,14.22
2017-09-20T17:24:01.358Z,14.18
2017-09-20T17:26:29.365Z,14.13
2017-09-20T17:28:58.366Z,14.06
2017-09-20T17:31:28.317Z,13.99
2017-09-20T17:33:56.163Z,13.92
2017-09-20T17:36:24.441Z,13.85
2017-09-20T17:38:52.317Z,13.78
2017-09-20T17:41:20.520Z,13.72
2017-09-20T17:43:48.230Z,13.66
2017-09-20T17:46:15.811Z,13.63
2017-09-20T17:48:43.432Z,13.61
2017-09-20T17:51:11.012Z,13.59
2017-09-20T17:53:38.634Z,13.61
2017-09-20T17:56:06.220Z,13.61
2017-09-20T17:58:33.848Z,13.63
2017-09-20T18:01:01.529Z,13.63
2017-09-20T18:03:29.268Z,13.65
2017-09-20T18:05:56.936Z,13.66
2017-09-20T18:08:24.672Z,13.68
2017-09-20T18:10:52.369Z,13.65
2017-09-20T18:13:20.149Z,13.65
2017-09-20T18:15:47.833Z,13.63
2017-09-20T18:18:15.561Z,13.63
2017-09-20T18:20:43.285Z,13.64
2017-09-20T18:23:11.034Z,13.61
2017-09-20T18:25:38.710Z,13.59
2017-09-20T18:28:06.439Z,13.59
2017-09-20T18:30:34.052Z,13.58
2017-09-20T18:33:04.278Z,13.57
2017-09-20T18:35:31.911Z,13.56
2017-09-20T18:38:00.311Z,13.53
2017-09-20T18:40:28.055Z,13.51
2017-09-20T18:42:55.682Z,13.50
2017-09-20T18:45:23.269Z,13.48
2017-09-20T18:47:54.253Z,13.46
2017-09-20T18:50:21.839Z,13.44
2017-09-20T18:52:49.576Z,13.41
2017-09-20T18:55:17.191Z,13.39
2017-09-20T18:57:44.837Z,13.39
2017-09-20T19:00:12.464Z,13.39
2017-09-20T19:02:40.073Z,13.39
2017-09-20T19:05:07.798Z,13.38
2017-09-20T19:07:35.465Z,13.37
2017-09-20T19:10:03.261Z,13.36
2017-09-20T19:12:30.910Z,13.34
2017-09-20T19:14:58.617Z,13.34
2017-09-20T19:20:14.152Z,13.24
2017-09-20T19:22:45.211Z,13.22
2017-09-20T19:25:12.855Z,13.20
2017-09-20T19:27:40.448Z,13.17
2017-09-20T19:30:08.095Z,13.14
2017-09-20T19:32:35.785Z,13.11
2017-09-20T19:35:12.423Z,13.10
2017-09-20T19:37:40.011Z,13.09
2017-09-20T19:40:07.645Z,13.08
2017-09-20T19:42:35.232Z,13.07
2017-09-20T19:45:02.976Z,13.07
2017-09-20T19:47:30.567Z,13.06
2017-09-20T19:49:58.200Z,13.05
2017-09-20T19:52:25.945Z,13.04
2017-09-20T19:54:53.933Z,13.01
2017-09-20T19:57:21.535Z,12.98
2017-09-20T20:09:33.527Z,12.91
2017-09-20T20:12:01.285Z,12.89
2017-09-20T20:17:27.025Z,12.89
2017-09-20T20:25:59.446Z,12.86
2017-09-20T20:28:28.056Z,12.85
2017-09-20T20:30:55.741Z,12.85
2017-09-20T20:33:23.365Z,12.84
2017-09-20T20:35:51.047Z,12.83
2017-09-20T20:38:18.700Z,12.82
2017-09-20T20:40:46.527Z,12.81
2017-09-20T20:43:14.212Z,12.81
2017-09-20T20:45:42.006Z,12.81
2017-09-20T20:48:09.640Z,12.80
2017-09-20T20:50:37.488Z,12.80
2017-09-20T20:53:05.231Z,12.80
2017-09-20T20:55:33.029Z,12.78
2017-09-20T20:58:00.750Z,12.74
2017-09-20T21:00:28.554Z,12.71
2017-09-20T21:02:56.315Z,12.68
2017-09-20T21:05:24.099Z,12.64
2017-09-20T21:07:51.815Z,12.59
2017-09-20T21:10:19.571Z,12.52
2017-09-20T21:12:47.560Z,12.44
2017-09-20T21:15:15.342Z,12.35
2017-09-20T21:17:43.120Z,12.25
2017-09-20T21:20:11.094Z,12.16
2017-09-20T21:22:38.754Z,12.06
2017-09-20T21:25:06.546Z,11.97
2017-09-20T21:27:34.285Z,11.89
2017-09-20T21:30:02.056Z,11.80
2017-09-20T21:32:29.754Z,11.75
2017-09-20T21:34:57.518Z,11.72
2017-09-20T21:37:25.267Z,11.66
2017-09-20T21:39:53.097Z,11.63
2017-09-20T21:42:20.842Z,11.60
2017-09-20T21:44:48.597Z,11.57
2017-09-20T21:47:16.297Z,11.52
2017-09-20T21:49:44.042Z,11.38
2017-09-20T21:52:11.765Z,11.29
2017-09-20T21:54:39.573Z,11.19
2017-09-20T21:57:07.539Z,11.16
2017-09-20T21:59:35.295Z,11.13
2017-09-20T22:02:02.996Z,11.11
2017-09-20T22:04:30.767Z,11.06
2017-09-20T22:06:58.464Z,10.98
2017-09-20T22:09:26.181Z,10.90
2017-09-20T22:11:53.942Z,10.82
2017-09-20T22:14:21.661Z,10.76
2017-09-20T22:16:49.432Z,10.69
2017-09-20T22:19:17.154Z,10.67
2017-09-20T22:21:44.932Z,10.66
2017-09-20T22:24:12.646Z,10.65
2017-09-20T22:26:40.336Z,10.64
2017-09-20T22:29:07.965Z,10.62
2017-09-20T22:31:35.750Z,10.63
2017-09-20T22:34:03.468Z,10.63
2017-09-20T22:36:31.116Z,10.62
2017-09-20T22:38:58.885Z,10.58
2017-09-20T22:41:26.615Z,10.51
2017-09-20T22:43:54.301Z,10.42
2017-09-20T22:46:22.053Z,10.34
2017-09-20T22:48:49.745Z,10.28
2017-09-20T22:51:17.478Z,10.25
2017-09-20T22:53:45.189Z,10.23
2017-09-20T22:56:12.930Z,10.24
2017-09-20T22:58:40.637Z,10.26
2017-09-20T23:01:08.388Z,10.26
2017-09-20T23:03:36.082Z,10.24
2017-09-20T23:06:03.813Z,10.22
2017-09-20T23:08:31.522Z,10.20
2017-09-20T23:10:59.284Z,10.11
2017-09-20T23:13:26.964Z,10.12
2017-09-20T23:15:54.709Z,10.11
2017-09-20T23:18:22.403Z,10.12
2017-09-20T23:20:50.149Z,10.13
2017-09-20T23:23:17.840Z,10.10
2017-09-20T23:25:45.595Z,10.01
2017-09-20T23:28:13.339Z,9.93
2017-09-20T23:30:41.077Z,9.86
2017-09-20T23:33:08.765Z,9.78
2017-09-20T23:35:36.511Z,9.75
2017-09-20T23:38:04.206Z,9.70
2017-09-20T23:40:32.001Z,9.65
2017-09-20T23:42:59.689Z,9.62
2017-09-20T23:45:27.372Z,9.56
2017-09-20T23:47:55.127Z,9.52
2017-09-20T23:50:22.826Z,9.52
2017-09-20T23:52:50.571Z,9.46
2017-09-20T23:55:18.280Z,9.41
2017-09-20T23:57:46.034Z,9.38
